sensor_id;sensor_type;location;lat;lon;timestamp;temperature;humidity
77305;DHT22;66364;52.622;7.746;2023-09-18T00:01:35;18.30;99.90
77305;DHT22;66364;52.622;7.746;2023-09-18T00:03:36;18.30;99.90
77305;DHT22;66364;52.622;7.746;2023-09-18T00:05:37;18.30;99.90
77305;DHT22;66364;52.622;7.746;2023-09-18T00:07:38;18.60;99.90
77305;DHT22;66364;52.622;7.746;2023-09-18T00:09:39;18.20;99.90
77305;DHT22;66364;52.622;7.746;2023-09-18T00:11:40;18.50;99.90
77305;DHT22;66364;52.622;7.746;2023-09-18T00:13:41;18.20;99.90
77305;DHT22;66364;52.622;7.746;2023-09-18T00:15:42;18.20;99.90
77305;DHT22;66364;52.622;7.746;2023-09-18T00:17:42;18.20;99.90
77305;DHT22;66364;52.622;7.746;2023-09-18T00:19:44;17.90;99.90
77305;DHT22;66364;52.622;7.746;2023-09-18T00:21:44;18.10;99.90
77305;DHT22;66364;52.622;7.746;2023-09-18T00:23:45;18.30;99.90
77305;DHT22;66364;52.622;7.746;2023-09-18T00:25:45;18.10;99.90
77305;DHT22;66364;52.622;7.746;2023-09-18T00:27:46;18.20;99.90
77305;DHT22;66364;52.622;7.746;2023-09-18T00:29:48;18.00;99.90
77305;DHT22;66364;52.622;7.746;2023-09-18T00:31:49;18.10;99.90
77305;DHT22;66364;52.622;7.746;2023-09-18T00:33:49;18.10;99.90
77305;DHT22;66364;52.622;7.746;2023-09-18T00:37:10;18.00;99.90
77305;DHT22;66364;52.622;7.746;2023-09-18T00:39:11;18.00;99.90
77305;DHT22;66364;52.622;7.746;2023-09-18T00:41:18;18.00;99.90
77305;DHT22;66364;52.622;7.746;2023-09-18T00:43:19;18.30;99.90
77305;DHT22;66364;52.622;7.746;2023-09-18T00:45:20;17.90;99.90
77305;DHT22;66364;52.622;7.746;2023-09-18T00:47:20;18.00;99.90
77305;DHT22;66364;52.622;7.746;2023-09-18T00:49:21;17.80;99.90
77305;DHT22;66364;52.622;7.746;2023-09-18T00:51:23;17.90;99.90
77305;DHT22;66364;52.622;7.746;2023-09-18T00:53:24;17.90;99.90
77305;DHT22;66364;52.622;7.746;2023-09-18T00:55:26;17.90;99.90
77305;DHT22;66364;52.622;7.746;2023-09-18T00:57:28;17.70;99.90
77305;DHT22;66364;52.622;7.746;2023-09-18T00:59:28;17.70;99.90
77305;DHT22;66364;52.622;7.746;2023-09-18T01:01:30;17.90;99.90
77305;DHT22;66364;52.622;7.746;2023-09-18T01:03:32;17.90;99.90
77305;DHT22;66364;52.622;7.746;2023-09-18T01:05:33;17.70;99.90
77305;DHT22;66364;52.622;7.746;2023-09-18T01:07:34;17.90;99.90
77305;DHT22;66364;52.622;7.746;2023-09-18T01:09:35;17.90;99.90
77305;DHT22;66364;52.622;7.746;2023-09-18T01:13:49;18.00;99.90
77305;DHT22;66364;52.622;7.746;2023-09-18T01:15:50;17.90;99.90
77305;DHT22;66364;52.622;7.746;2023-09-18T01:17:51;18.00;99.90
77305;DHT22;66364;52.622;7.746;2023-09-18T01:19:52;17.90;99.90
77305;DHT22;66364;52.622;7.746;2023-09-18T01:21:52;18.20;99.90
77305;DHT22;66364;52.622;7.746;2023-09-18T01:23:53;17.80;99.90
77305;DHT22;66364;52.622;7.746;2023-09-18T01:25:54;17.90;99.90
77305;DHT22;66364;52.622;7.746;2023-09-18T01:27:55;17.90;99.90
77305;DHT22;66364;52.622;7.746;2023-09-18T01:29:56;17.90;99.90
77305;DHT22;66364;52.622;7.746;2023-09-18T01:34:25;17.80;99.90
77305;DHT22;66364;52.622;7.746;2023-09-18T01:36:28;17.90;99.90
77305;DHT22;66364;52.622;7.746;2023-09-18T01:38:29;17.90;99.90
77305;DHT22;66364;52.622;7.746;2023-09-18T01:40:30;18.00;99.90
77305;DHT22;66364;52.622;7.746;2023-09-18T01:42:32;18.00;99.90
77305;DHT22;66364;52.622;7.746;2023-09-18T01:44:33;18.00;99.90
77305;DHT22;66364;52.622;7.746;2023-09-18T01:46:34;18.20;99.90
77305;DHT22;66364;52.622;7.746;2023-09-18T01:48:35;18.20;99.90
77305;DHT22;66364;52.622;7.746;2023-09-18T01:50:36;17.90;99.90
77305;DHT22;66364;52.622;7.746;2023-09-18T01:52:37;17.90;99.90
77305;DHT22;66364;52.622;7.746;2023-09-18T01:54:38;17.90;99.90
77305;DHT22;66364;52.622;7.746;2023-09-18T01:56:39;17.90;99.90
77305;DHT22;66364;52.622;7.746;2023-09-18T01:58:40;17.80;99.90
77305;DHT22;66364;52.622;7.746;2023-09-18T02:00:40;17.90;99.90
77305;DHT22;66364;52.622;7.746;2023-09-18T02:02:41;17.90;99.90
77305;DHT22;66364;52.622;7.746;2023-09-18T02:04:42;17.90;99.90
77305;DHT22;66364;52.622;7.746;2023-09-18T02:06:43;17.90;99.90
77305;DHT22;66364;52.622;7.746;2023-09-18T02:08:44;17.90;99.90
77305;DHT22;66364;52.622;7.746;2023-09-18T02:10:45;18.10;99.90
77305;DHT22;66364;52.622;7.746;2023-09-18T02:12:45;18.10;99.90
77305;DHT22;66364;52.622;7.746;2023-09-18T02:14:46;17.70;99.90
77305;DHT22;66364;52.622;7.746;2023-09-18T02:16:48;18.00;99.90
77305;DHT22;66364;52.622;7.746;2023-09-18T02:18:48;17.80;99.90
77305;DHT22;66364;52.622;7.746;2023-09-18T02:20:49;17.90;99.90
77305;DHT22;66364;52.622;7.746;2023-09-18T02:22:50;17.80;99.90
77305;DHT22;66364;52.622;7.746;2023-09-18T02:24:51;18.00;99.90
77305;DHT22;66364;52.622;7.746;2023-09-18T02:26:51;18.00;99.90
77305;DHT22;66364;52.622;7.746;2023-09-18T02:28:52;17.80;99.90
77305;DHT22;66364;52.622;7.746;2023-09-18T02:30:53;17.60;99.90
77305;DHT22;66364;52.622;7.746;2023-09-18T02:32:54;18.00;99.90
77305;DHT22;66364;52.622;7.746;2023-09-18T02:34:55;18.00;99.90
77305;DHT22;66364;52.622;7.746;2023-09-18T02:36:56;17.80;99.90
77305;DHT22;66364;52.622;7.746;2023-09-18T02:38:56;18.00;99.90
77305;DHT22;66364;52.622;7.746;2023-09-18T02:40:57;18.00;99.90
77305;DHT22;66364;52.622;7.746;2023-09-18T02:42:59;18.10;99.90
77305;DHT22;66364;52.622;7.746;2023-09-18T02:44:59;18.00;99.90
77305;DHT22;66364;52.622;7.746;2023-09-18T02:47:00;18.20;99.90
77305;DHT22;66364;52.622;7.746;2023-09-18T02:49:01;18.10;99.90
77305;DHT22;66364;52.622;7.746;2023-09-18T02:51:02;18.20;99.90
77305;DHT22;66364;52.622;7.746;2023-09-18T02:53:06;18.20;99.90
77305;DHT22;66364;52.622;7.746;2023-09-18T02:55:07;18.00;99.90
77305;DHT22;66364;52.622;7.746;2023-09-18T02:57:08;18.20;99.90
77305;DHT22;66364;52.622;7.746;2023-09-18T02:59:09;18.20;99.90
77305;DHT22;66364;52.622;7.746;2023-09-18T03:01:09;18.30;99.90
77305;DHT22;66364;52.622;7.746;2023-09-18T03:03:11;18.20;99.90
77305;DHT22;66364;52.622;7.746;2023-09-18T03:05:14;18.30;99.90
77305;DHT22;66364;52.622;7.746;2023-09-18T03:07:14;18.20;99.90
77305;DHT22;66364;52.622;7.746;2023-09-18T03:09:16;18.20;99.90
77305;DHT22;66364;52.622;7.746;2023-09-18T03:11:18;18.10;99.90
77305;DHT22;66364;52.622;7.746;2023-09-18T03:13:19;18.20;99.90
77305;DHT22;66364;52.622;7.746;2023-09-18T03:15:22;18.00;99.90
77305;DHT22;66364;52.622;7.746;2023-09-18T03:17:24;18.30;99.90
77305;DHT22;66364;52.622;7.746;2023-09-18T03:19:27;18.10;99.90
77305;DHT22;66364;52.622;7.746;2023-09-18T03:21:29;18.00;99.90
77305;DHT22;66364;52.622;7.746;2023-09-18T03:23:31;18.00;99.90
77305;DHT22;66364;52.622;7.746;2023-09-18T03:25:35;18.10;99.90
77305;DHT22;66364;52.622;7.746;2023-09-18T03:27:37;17.90;99.90
77305;DHT22;66364;52.622;7.746;2023-09-18T03:29:40;18.10;99.90
77305;DHT22;66364;52.622;7.746;2023-09-18T03:31:42;17.90;99.90
77305;DHT22;66364;52.622;7.746;2023-09-18T03:33:45;17.90;99.90
77305;DHT22;66364;52.622;7.746;2023-09-18T03:35:48;17.90;99.90
77305;DHT22;66364;52.622;7.746;2023-09-18T03:37:51;17.90;99.90
77305;DHT22;66364;52.622;7.746;2023-09-18T03:39:54;18.10;99.90
77305;DHT22;66364;52.622;7.746;2023-09-18T03:41:57;18.00;99.90
77305;DHT22;66364;52.622;7.746;2023-09-18T03:44:00;17.90;99.90
77305;DHT22;66364;52.622;7.746;2023-09-18T03:46:03;18.00;99.90
77305;DHT22;66364;52.622;7.746;2023-09-18T03:48:06;18.10;99.90
77305;DHT22;66364;52.622;7.746;2023-09-18T03:50:09;18.10;99.90
77305;DHT22;66364;52.622;7.746;2023-09-18T03:52:11;18.10;99.90
77305;DHT22;66364;52.622;7.746;2023-09-18T03:54:14;18.00;99.90
77305;DHT22;66364;52.622;7.746;2023-09-18T03:56:15;17.90;99.90
77305;DHT22;66364;52.622;7.746;2023-09-18T04:00:07;18.00;99.90
77305;DHT22;66364;52.622;7.746;2023-09-18T04:02:08;18.00;99.90
77305;DHT22;66364;52.622;7.746;2023-09-18T04:04:11;17.90;99.90
77305;DHT22;66364;52.622;7.746;2023-09-18T04:06:14;17.90;99.90
77305;DHT22;66364;52.622;7.746;2023-09-18T04:08:16;17.70;99.90
77305;DHT22;66364;52.622;7.746;2023-09-18T04:10:19;18.20;99.90
77305;DHT22;66364;52.622;7.746;2023-09-18T04:12:21;18.10;99.90
77305;DHT22;66364;52.622;7.746;2023-09-18T04:14:24;17.90;99.90
77305;DHT22;66364;52.622;7.746;2023-09-18T04:16:27;18.00;99.90
77305;DHT22;66364;52.622;7.746;2023-09-18T04:18:29;18.10;99.90
77305;DHT22;66364;52.622;7.746;2023-09-18T04:20:35;18.10;99.90
77305;DHT22;66364;52.622;7.746;2023-09-18T04:22:41;18.10;99.90
77305;DHT22;66364;52.622;7.746;2023-09-18T04:24:42;18.10;99.90
77305;DHT22;66364;52.622;7.746;2023-09-18T04:26:44;18.00;99.90
77305;DHT22;66364;52.622;7.746;2023-09-18T04:30:41;17.70;99.90
77305;DHT22;66364;52.622;7.746;2023-09-18T04:32:43;17.80;99.90
77305;DHT22;66364;52.622;7.746;2023-09-18T04:34:46;17.70;99.90
77305;DHT22;66364;52.622;7.746;2023-09-18T04:36:48;18.00;99.90
77305;DHT22;66364;52.622;7.746;2023-09-18T04:38:51;17.80;99.90
77305;DHT22;66364;52.622;7.746;2023-09-18T04:40:59;17.80;99.90
77305;DHT22;66364;52.622;7.746;2023-09-18T04:43:01;17.80;99.90
77305;DHT22;66364;52.622;7.746;2023-09-18T04:45:02;17.70;99.90
77305;DHT22;66364;52.622;7.746;2023-09-18T04:47:02;17.80;99.90
77305;DHT22;66364;52.622;7.746;2023-09-18T04:49:03;18.10;99.90
77305;DHT22;66364;52.622;7.746;2023-09-18T04:51:04;18.10;99.90
77305;DHT22;66364;52.622;7.746;2023-09-18T04:53:05;18.10;99.90
77305;DHT22;66364;52.622;7.746;2023-09-18T04:55:06;18.30;99.90
77305;DHT22;66364;52.622;7.746;2023-09-18T04:57:07;18.40;99.90
77305;DHT22;66364;52.622;7.746;2023-09-18T04:59:08;18.30;99.90
77305;DHT22;66364;52.622;7.746;2023-09-18T05:02:42;18.50;99.90
77305;DHT22;66364;52.622;7.746;2023-09-18T05:04:43;19.00;99.90
77305;DHT22;66364;52.622;7.746;2023-09-18T05:06:44;19.00;99.90
77305;DHT22;66364;52.622;7.746;2023-09-18T05:08:45;18.80;99.90
77305;DHT22;66364;52.622;7.746;2023-09-18T05:10:46;18.80;99.90
77305;DHT22;66364;52.622;7.746;2023-09-18T05:12:48;18.80;99.90
77305;DHT22;66364;52.622;7.746;2023-09-18T05:14:48;18.80;99.90
77305;DHT22;66364;52.622;7.746;2023-09-18T05:16:49;19.10;99.90
77305;DHT22;66364;52.622;7.746;2023-09-18T05:18:51;18.80;99.90
77305;DHT22;66364;52.622;7.746;2023-09-18T05:20:51;18.70;99.90
77305;DHT22;66364;52.622;7.746;2023-09-18T05:22:53;18.70;99.90
77305;DHT22;66364;52.622;7.746;2023-09-18T05:24:54;18.80;99.90
77305;DHT22;66364;52.622;7.746;2023-09-18T05:26:58;19.10;99.90
77305;DHT22;66364;52.622;7.746;2023-09-18T05:28:59;18.90;99.90
77305;DHT22;66364;52.622;7.746;2023-09-18T05:31:00;18.80;99.90
77305;DHT22;66364;52.622;7.746;2023-09-18T05:33:01;19.10;99.90
77305;DHT22;66364;52.622;7.746;2023-09-18T05:35:02;18.90;99.90
77305;DHT22;66364;52.622;7.746;2023-09-18T05:37:03;18.90;99.90
77305;DHT22;66364;52.622;7.746;2023-09-18T05:39:04;18.90;99.90
77305;DHT22;66364;52.622;7.746;2023-09-18T05:41:05;18.90;99.90
77305;DHT22;66364;52.622;7.746;2023-09-18T05:43:06;18.80;99.90
77305;DHT22;66364;52.622;7.746;2023-09-18T05:45:06;19.00;99.90
77305;DHT22;66364;52.622;7.746;2023-09-18T05:47:08;19.00;99.90
77305;DHT22;66364;52.622;7.746;2023-09-18T05:49:09;19.00;99.90
77305;DHT22;66364;52.622;7.746;2023-09-18T05:51:10;19.10;99.90
77305;DHT22;66364;52.622;7.746;2023-09-18T05:53:11;19.10;99.90
77305;DHT22;66364;52.622;7.746;2023-09-18T05:55:12;19.10;99.90
77305;DHT22;66364;52.622;7.746;2023-09-18T05:57:13;19.10;99.90
77305;DHT22;66364;52.622;7.746;2023-09-18T05:59:14;19.00;99.90
77305;DHT22;66364;52.622;7.746;2023-09-18T06:01:14;19.10;99.90
77305;DHT22;66364;52.622;7.746;2023-09-18T06:03:16;19.00;99.90
77305;DHT22;66364;52.622;7.746;2023-09-18T06:05:17;19.00;99.90
77305;DHT22;66364;52.622;7.746;2023-09-18T06:07:18;19.10;99.90
77305;DHT22;66364;52.622;7.746;2023-09-18T06:09:18;19.10;99.90
77305;DHT22;66364;52.622;7.746;2023-09-18T06:11:19;19.20;99.90
77305;DHT22;66364;52.622;7.746;2023-09-18T06:13:28;19.20;99.90
77305;DHT22;66364;52.622;7.746;2023-09-18T06:15:30;19.30;99.90
77305;DHT22;66364;52.622;7.746;2023-09-18T06:17:31;19.30;99.90
77305;DHT22;66364;52.622;7.746;2023-09-18T06:19:32;19.40;99.90
77305;DHT22;66364;52.622;7.746;2023-09-18T06:21:33;19.50;99.90
77305;DHT22;66364;52.622;7.746;2023-09-18T06:23:33;19.50;99.90
77305;DHT22;66364;52.622;7.746;2023-09-18T06:25:34;19.50;99.90
77305;DHT22;66364;52.622;7.746;2023-09-18T06:27:36;19.50;99.90
77305;DHT22;66364;52.622;7.746;2023-09-18T06:29:37;19.50;99.90
77305;DHT22;66364;52.622;7.746;2023-09-18T06:31:38;19.40;99.90
77305;DHT22;66364;52.622;7.746;2023-09-18T06:33:38;19.40;99.90
77305;DHT22;66364;52.622;7.746;2023-09-18T06:35:40;19.60;99.90
77305;DHT22;66364;52.622;7.746;2023-09-18T06:37:41;19.50;99.90
77305;DHT22;66364;52.622;7.746;2023-09-18T06:39:42;19.50;99.90
77305;DHT22;66364;52.622;7.746;2023-09-18T06:41:42;19.50;99.90
77305;DHT22;66364;52.622;7.746;2023-09-18T06:43:43;19.60;99.90
77305;DHT22;66364;52.622;7.746;2023-09-18T06:45:44;19.60;99.90
77305;DHT22;66364;52.622;7.746;2023-09-18T06:47:45;19.40;99.90
77305;DHT22;66364;52.622;7.746;2023-09-18T06:49:46;19.40;99.90
77305;DHT22;66364;52.622;7.746;2023-09-18T06:51:47;19.40;99.90
77305;DHT22;66364;52.622;7.746;2023-09-18T06:53:48;19.40;99.90
77305;DHT22;66364;52.622;7.746;2023-09-18T06:55:49;19.60;99.90
77305;DHT22;66364;52.622;7.746;2023-09-18T06:57:50;19.70;99.90
77305;DHT22;66364;52.622;7.746;2023-09-18T06:59:51;19.90;99.90
77305;DHT22;66364;52.622;7.746;2023-09-18T07:01:52;19.60;99.90
77305;DHT22;66364;52.622;7.746;2023-09-18T07:03:52;19.90;99.90
77305;DHT22;66364;52.622;7.746;2023-09-18T07:05:53;19.60;99.90
77305;DHT22;66364;52.622;7.746;2023-09-18T07:07:55;19.80;99.90
77305;DHT22;66364;52.622;7.746;2023-09-18T07:10:06;19.50;99.90
77305;DHT22;66364;52.622;7.746;2023-09-18T07:12:08;19.40;99.90
77305;DHT22;66364;52.622;7.746;2023-09-18T07:14:09;19.70;99.90
77305;DHT22;66364;52.622;7.746;2023-09-18T07:16:10;19.70;99.90
77305;DHT22;66364;52.622;7.746;2023-09-18T07:18:11;19.70;99.90
77305;DHT22;66364;52.622;7.746;2023-09-18T07:20:11;19.70;99.90
77305;DHT22;66364;52.622;7.746;2023-09-18T07:22:12;19.70;99.90
77305;DHT22;66364;52.622;7.746;2023-09-18T07:24:13;19.80;99.90
77305;DHT22;66364;52.622;7.746;2023-09-18T07:26:14;19.80;99.90
77305;DHT22;66364;52.622;7.746;2023-09-18T07:28:15;19.80;99.90
77305;DHT22;66364;52.622;7.746;2023-09-18T07:30:15;19.90;99.90
77305;DHT22;66364;52.622;7.746;2023-09-18T07:32:16;19.90;99.90
77305;DHT22;66364;52.622;7.746;2023-09-18T07:34:17;19.90;99.90
77305;DHT22;66364;52.622;7.746;2023-09-18T07:36:18;19.80;99.90
77305;DHT22;66364;52.622;7.746;2023-09-18T07:38:19;20.00;99.90
77305;DHT22;66364;52.622;7.746;2023-09-18T07:40:20;20.10;99.90
77305;DHT22;66364;52.622;7.746;2023-09-18T07:42:23;20.00;99.90
77305;DHT22;66364;52.622;7.746;2023-09-18T07:44:25;20.10;99.90
77305;DHT22;66364;52.622;7.746;2023-09-18T07:46:26;20.10;99.90
77305;DHT22;66364;52.622;7.746;2023-09-18T07:48:27;20.20;99.90
77305;DHT22;66364;52.622;7.746;2023-09-18T07:50:28;19.80;99.90
77305;DHT22;66364;52.622;7.746;2023-09-18T07:52:29;20.10;99.90
77305;DHT22;66364;52.622;7.746;2023-09-18T07:54:30;20.00;99.90
77305;DHT22;66364;52.622;7.746;2023-09-18T07:56:30;20.10;99.90
77305;DHT22;66364;52.622;7.746;2023-09-18T07:58:31;20.10;99.90
77305;DHT22;66364;52.622;7.746;2023-09-18T08:00:32;20.10;99.90
77305;DHT22;66364;52.622;7.746;2023-09-18T08:02:33;20.10;99.90
77305;DHT22;66364;52.622;7.746;2023-09-18T08:04:34;20.20;99.90
77305;DHT22;66364;52.622;7.746;2023-09-18T08:06:35;20.20;99.90
77305;DHT22;66364;52.622;7.746;2023-09-18T08:08:36;20.30;99.90
77305;DHT22;66364;52.622;7.746;2023-09-18T08:10:37;20.30;99.90
77305;DHT22;66364;52.622;7.746;2023-09-18T08:12:47;20.30;99.90
77305;DHT22;66364;52.622;7.746;2023-09-18T08:16:05;20.40;99.90
77305;DHT22;66364;52.622;7.746;2023-09-18T08:18:07;20.50;99.90
77305;DHT22;66364;52.622;7.746;2023-09-18T08:20:08;20.50;99.90
77305;DHT22;66364;52.622;7.746;2023-09-18T08:22:09;20.40;99.90
77305;DHT22;66364;52.622;7.746;2023-09-18T08:24:10;20.50;99.90
77305;DHT22;66364;52.622;7.746;2023-09-18T08:26:11;20.50;99.90
77305;DHT22;66364;52.622;7.746;2023-09-18T08:28:12;20.50;99.90
77305;DHT22;66364;52.622;7.746;2023-09-18T08:30:13;20.60;99.90
77305;DHT22;66364;52.622;7.746;2023-09-18T08:32:15;20.60;99.90
77305;DHT22;66364;52.622;7.746;2023-09-18T08:34:15;20.60;99.90
77305;DHT22;66364;52.622;7.746;2023-09-18T08:36:16;20.60;99.90
77305;DHT22;66364;52.622;7.746;2023-09-18T08:38:17;20.70;99.90
77305;DHT22;66364;52.622;7.746;2023-09-18T08:40:18;20.70;99.90
77305;DHT22;66364;52.622;7.746;2023-09-18T08:42:20;20.70;99.90
77305;DHT22;66364;52.622;7.746;2023-09-18T08:44:21;20.80;99.90
77305;DHT22;66364;52.622;7.746;2023-09-18T08:46:23;20.90;99.90
77305;DHT22;66364;52.622;7.746;2023-09-18T08:48:24;21.10;99.90
77305;DHT22;66364;52.622;7.746;2023-09-18T08:50:24;21.20;99.90
77305;DHT22;66364;52.622;7.746;2023-09-18T08:52:26;21.30;99.90
77305;DHT22;66364;52.622;7.746;2023-09-18T08:54:28;21.40;99.90
77305;DHT22;66364;52.622;7.746;2023-09-18T08:56:29;21.40;99.90
77305;DHT22;66364;52.622;7.746;2023-09-18T08:58:32;21.20;99.90
77305;DHT22;66364;52.622;7.746;2023-09-18T09:00:33;21.40;99.90
77305;DHT22;66364;52.622;7.746;2023-09-18T09:02:34;21.30;99.90
77305;DHT22;66364;52.622;7.746;2023-09-18T09:04:35;21.20;99.90
77305;DHT22;66364;52.622;7.746;2023-09-18T09:06:36;21.20;99.90
77305;DHT22;66364;52.622;7.746;2023-09-18T09:08:38;21.20;99.90
77305;DHT22;66364;52.622;7.746;2023-09-18T09:10:39;21.30;99.90
77305;DHT22;66364;52.622;7.746;2023-09-18T09:15:02;21.30;99.90
77305;DHT22;66364;52.622;7.746;2023-09-18T09:17:04;21.20;99.90
77305;DHT22;66364;52.622;7.746;2023-09-18T09:19:05;21.30;99.90
77305;DHT22;66364;52.622;7.746;2023-09-18T09:21:05;21.30;99.90
77305;DHT22;66364;52.622;7.746;2023-09-18T09:23:08;21.30;99.90
77305;DHT22;66364;52.622;7.746;2023-09-18T09:26:31;21.40;99.90
77305;DHT22;66364;52.622;7.746;2023-09-18T09:28:32;21.30;99.90
77305;DHT22;66364;52.622;7.746;2023-09-18T09:30:33;21.30;99.90
77305;DHT22;66364;52.622;7.746;2023-09-18T09:32:35;21.30;99.90
77305;DHT22;66364;52.622;7.746;2023-09-18T09:34:36;21.20;99.90
77305;DHT22;66364;52.622;7.746;2023-09-18T09:36:44;21.20;99.90
77305;DHT22;66364;52.622;7.746;2023-09-18T09:38:39;21.10;99.90
77305;DHT22;66364;52.622;7.746;2023-09-18T09:40:41;21.10;99.90
77305;DHT22;66364;52.622;7.746;2023-09-18T09:42:42;21.20;99.90
77305;DHT22;66364;52.622;7.746;2023-09-18T09:44:44;21.20;99.90
77305;DHT22;66364;52.622;7.746;2023-09-18T09:46:46;21.20;99.90
77305;DHT22;66364;52.622;7.746;2023-09-18T09:49:02;21.20;99.90
77305;DHT22;66364;52.622;7.746;2023-09-18T09:51:00;21.20;99.90
77305;DHT22;66364;52.622;7.746;2023-09-18T09:55:02;21.40;99.90
77305;DHT22;66364;52.622;7.746;2023-09-18T09:57:03;21.30;99.90
77305;DHT22;66364;52.622;7.746;2023-09-18T09:59:04;21.30;99.90
77305;DHT22;66364;52.622;7.746;2023-09-18T10:01:06;21.40;99.90
77305;DHT22;66364;52.622;7.746;2023-09-18T10:03:16;21.60;99.90
77305;DHT22;66364;52.622;7.746;2023-09-18T10:05:17;21.50;99.90
77305;DHT22;66364;52.622;7.746;2023-09-18T10:07:19;21.60;99.90
77305;DHT22;66364;52.622;7.746;2023-09-18T10:09:21;21.60;99.90
77305;DHT22;66364;52.622;7.746;2023-09-18T10:11:28;21.70;99.90
77305;DHT22;66364;52.622;7.746;2023-09-18T10:13:47;21.60;99.90
77305;DHT22;66364;52.622;7.746;2023-09-18T10:15:48;22.00;99.90
77305;DHT22;66364;52.622;7.746;2023-09-18T10:17:50;22.20;99.90
77305;DHT22;66364;52.622;7.746;2023-09-18T10:20:01;21.70;99.90
77305;DHT22;66364;52.622;7.746;2023-09-18T10:24:22;22.50;99.90
77305;DHT22;66364;52.622;7.746;2023-09-18T10:26:23;22.30;99.90
77305;DHT22;66364;52.622;7.746;2023-09-18T10:28:26;22.20;99.90
77305;DHT22;66364;52.622;7.746;2023-09-18T10:30:27;22.20;99.90
77305;DHT22;66364;52.622;7.746;2023-09-18T10:32:29;22.20;99.90
77305;DHT22;66364;52.622;7.746;2023-09-18T10:34:30;22.10;99.90
77305;DHT22;66364;52.622;7.746;2023-09-18T10:36:31;22.00;99.90
77305;DHT22;66364;52.622;7.746;2023-09-18T10:38:31;22.00;99.90
77305;DHT22;66364;52.622;7.746;2023-09-18T10:40:34;22.00;99.90
77305;DHT22;66364;52.622;7.746;2023-09-18T10:42:37;21.90;99.90
77305;DHT22;66364;52.622;7.746;2023-09-18T10:44:38;21.70;99.90
77305;DHT22;66364;52.622;7.746;2023-09-18T10:46:39;21.20;99.90
77305;DHT22;66364;52.622;7.746;2023-09-18T10:48:44;21.60;99.90
77305;DHT22;66364;52.622;7.746;2023-09-18T10:50:43;21.60;99.90
77305;DHT22;66364;52.622;7.746;2023-09-18T10:52:45;21.70;99.90
77305;DHT22;66364;52.622;7.746;2023-09-18T10:54:47;21.60;99.90
77305;DHT22;66364;52.622;7.746;2023-09-18T10:56:48;21.80;99.90
77305;DHT22;66364;52.622;7.746;2023-09-18T10:58:55;21.90;99.90
77305;DHT22;66364;52.622;7.746;2023-09-18T11:00:58;21.90;99.90
77305;DHT22;66364;52.622;7.746;2023-09-18T11:03:09;21.80;99.90
77305;DHT22;66364;52.622;7.746;2023-09-18T11:05:10;21.70;99.90
77305;DHT22;66364;52.622;7.746;2023-09-18T11:07:19;22.10;99.90
77305;DHT22;66364;52.622;7.746;2023-09-18T11:09:27;21.80;99.90
77305;DHT22;66364;52.622;7.746;2023-09-18T11:11:28;21.80;99.90
77305;DHT22;66364;52.622;7.746;2023-09-18T11:13:37;21.90;99.90
77305;DHT22;66364;52.622;7.746;2023-09-18T11:15:38;22.00;99.90
77305;DHT22;66364;52.622;7.746;2023-09-18T11:17:40;22.20;99.90
77305;DHT22;66364;52.622;7.746;2023-09-18T11:19:41;22.20;99.90
77305;DHT22;66364;52.622;7.746;2023-09-18T11:21:42;22.40;99.90
77305;DHT22;66364;52.622;7.746;2023-09-18T11:23:42;22.50;99.90
77305;DHT22;66364;52.622;7.746;2023-09-18T11:25:43;22.50;99.90
77305;DHT22;66364;52.622;7.746;2023-09-18T11:27:54;22.70;99.90
77305;DHT22;66364;52.622;7.746;2023-09-18T11:29:52;23.00;99.90
77305;DHT22;66364;52.622;7.746;2023-09-18T11:31:56;23.20;99.90
77305;DHT22;66364;52.622;7.746;2023-09-18T11:33:58;23.20;99.90
77305;DHT22;66364;52.622;7.746;2023-09-18T11:36:02;23.70;99.90
77305;DHT22;66364;52.622;7.746;2023-09-18T11:38:05;23.90;99.90
77305;DHT22;66364;52.622;7.746;2023-09-18T11:40:06;24.80;99.90
77305;DHT22;66364;52.622;7.746;2023-09-18T11:42:15;25.50;99.90
77305;DHT22;66364;52.622;7.746;2023-09-18T11:46:18;26.10;99.10
77305;DHT22;66364;52.622;7.746;2023-09-18T11:48:20;26.50;94.80
77305;DHT22;66364;52.622;7.746;2023-09-18T11:50:21;26.30;92.40
77305;DHT22;66364;52.622;7.746;2023-09-18T11:52:22;26.60;91.80
77305;DHT22;66364;52.622;7.746;2023-09-18T11:54:24;26.60;92.10
77305;DHT22;66364;52.622;7.746;2023-09-18T11:56:25;26.90;90.50
77305;DHT22;66364;52.622;7.746;2023-09-18T11:58:26;26.90;88.60
77305;DHT22;66364;52.622;7.746;2023-09-18T12:00:27;26.80;88.70
77305;DHT22;66364;52.622;7.746;2023-09-18T12:02:29;26.30;88.30
77305;DHT22;66364;52.622;7.746;2023-09-18T12:04:30;25.90;91.80
77305;DHT22;66364;52.622;7.746;2023-09-18T12:06:31;26.10;92.30
77305;DHT22;66364;52.622;7.746;2023-09-18T12:08:32;26.00;89.90
77305;DHT22;66364;52.622;7.746;2023-09-18T12:10:33;25.70;88.60
77305;DHT22;66364;52.622;7.746;2023-09-18T12:12:35;25.60;90.30
77305;DHT22;66364;52.622;7.746;2023-09-18T12:14:35;25.90;90.30
77305;DHT22;66364;52.622;7.746;2023-09-18T12:16:39;25.80;90.30
77305;DHT22;66364;52.622;7.746;2023-09-18T12:18:48;25.80;90.40
77305;DHT22;66364;52.622;7.746;2023-09-18T12:20:49;26.00;89.90
77305;DHT22;66364;52.622;7.746;2023-09-18T12:22:50;25.40;90.50
77305;DHT22;66364;52.622;7.746;2023-09-18T12:24:51;25.00;91.60
77305;DHT22;66364;52.622;7.746;2023-09-18T12:26:52;25.00;92.50
77305;DHT22;66364;52.622;7.746;2023-09-18T12:28:53;25.10;92.20
77305;DHT22;66364;52.622;7.746;2023-09-18T12:30:54;24.80;91.60
77305;DHT22;66364;52.622;7.746;2023-09-18T12:32:58;24.50;92.60
77305;DHT22;66364;52.622;7.746;2023-09-18T12:34:58;24.10;93.50
77305;DHT22;66364;52.622;7.746;2023-09-18T12:36:59;23.70;94.90
77305;DHT22;66364;52.622;7.746;2023-09-18T12:39:01;23.70;95.90
77305;DHT22;66364;52.622;7.746;2023-09-18T12:41:03;23.60;96.20
77305;DHT22;66364;52.622;7.746;2023-09-18T12:43:04;24.10;95.30
77305;DHT22;66364;52.622;7.746;2023-09-18T12:45:06;24.60;95.20
77305;DHT22;66364;52.622;7.746;2023-09-18T12:47:08;24.90;93.70
77305;DHT22;66364;52.622;7.746;2023-09-18T12:51:18;24.90;91.10
77305;DHT22;66364;52.622;7.746;2023-09-18T12:53:21;25.10;91.80
77305;DHT22;66364;52.622;7.746;2023-09-18T12:55:22;25.50;91.20
77305;DHT22;66364;52.622;7.746;2023-09-18T12:57:23;25.60;90.70
77305;DHT22;66364;52.622;7.746;2023-09-18T12:59:24;25.60;89.20
77305;DHT22;66364;52.622;7.746;2023-09-18T13:01:27;25.30;84.20
77305;DHT22;66364;52.622;7.746;2023-09-18T13:03:28;25.20;86.40
77305;DHT22;66364;52.622;7.746;2023-09-18T13:05:30;25.10;85.30
77305;DHT22;66364;52.622;7.746;2023-09-18T13:07:31;25.40;85.70
77305;DHT22;66364;52.622;7.746;2023-09-18T13:09:32;25.50;85.90
77305;DHT22;66364;52.622;7.746;2023-09-18T13:11:32;25.30;84.50
77305;DHT22;66364;52.622;7.746;2023-09-18T13:13:33;25.30;86.20